»·PEaware :: N7359T KVNY-KABQ

N7359T :: KVNY-KABQ

FLIGHT INFORMATION

Flight Status: Arrived
Operator: Privately registered:
United States
More flights under this callsign
Pilot: Utku A. (15598)
Aircraft: CESSNA T210 TURBO CENTURION
(T210)
More flights by this aircraft type
Origin: KVNY Van Nuys
United States
Destination: KABQ Albuquerque Intl Sunport
United States
More flights between these airports :: More routes between these airports
Route: +ABQ
File this flight plan on PilotEdge
Remarks: SKYHIGH RELOCATION FLIGHT FOR LEG#2 (SUPPLEMENTAL O2 ABOARD)
Altitude:
(Current/Filed)
21,000ft
Speed:
(Current/Filed)
195kts
Departed: 10-Oct-18 01:50 PM
Arrived: 10-Oct-18 05:02 PM
Distance/Time
Traveled:
588nm/3:12
Distance/Time
To Go:
Arrived

Flight Plot

Page will automatically refresh every two minutes.

Flight plan parsing failed; only flown route is shown


Map Options




Map Legend


Flown Route
Filed Route
Departure Airport
Arrival Airport
Navaid (VOR, NDB)
Fix

Horizontal Profiles

Position Reports

Time Latitude Longitude Heading Altitude Ground
Speed
10-Oct-18 13:30 34.204256 -118.491696 180 806ft 0kts
10-Oct-18 13:31 34.204256 -118.491696 180 806ft 0kts
10-Oct-18 13:32 34.204256 -118.491696 180 806ft 0kts
10-Oct-18 13:33 34.204256 -118.491696 180 806ft 0kts
10-Oct-18 13:34 34.204256 -118.491696 180 806ft 0kts
10-Oct-18 13:35 34.204256 -118.491696 180 806ft 0kts
10-Oct-18 13:36 34.204256 -118.491696 180 806ft 0kts
10-Oct-18 13:37 34.204256 -118.491696 180 806ft 0kts
10-Oct-18 13:38 34.204256 -118.491696 180 806ft 0kts
10-Oct-18 13:39 34.204256 -118.491696 180 806ft 0kts
10-Oct-18 13:40 34.204256 -118.491696 180 806ft 0kts
10-Oct-18 13:41 34.204256 -118.491696 180 806ft 0kts
10-Oct-18 13:42 34.204222 -118.491685 142 806ft 1kts
10-Oct-18 13:43 34.206055 -118.491188 356 806ft 11kts
10-Oct-18 13:44 34.209096 -118.491476 355 806ft 12kts
10-Oct-18 13:45 34.211725 -118.491720 354 806ft 11kts
10-Oct-18 13:46 34.215140 -118.492090 351 806ft 8kts
10-Oct-18 13:47 34.217866 -118.492313 355 806ft 10kts
10-Oct-18 13:48 34.218658 -118.492207 41 806ft 0kts
10-Oct-18 13:49 34.218658 -118.492207 41 806ft 0kts
10-Oct-18 13:50 34.218658 -118.492207 41 806ft 0kts
10-Oct-18 13:51 34.217859 -118.491103 176 806ft 40kts
10-Oct-18 13:52 34.191757 -118.488003 175 1644ft 115kts
10-Oct-18 13:53 34.167355 -118.462105 128 2696ft 116kts
10-Oct-18 13:54 34.149299 -118.428091 125 3766ft 124kts
10-Oct-18 13:55 34.131206 -118.395398 124 5124ft 108kts
10-Oct-18 13:56 34.125935 -118.363461 29 6445ft 104kts
10-Oct-18 13:57 34.156506 -118.367202 351 7567ft 116kts
10-Oct-18 13:58 34.188623 -118.374498 350 8731ft 119kts
10-Oct-18 13:59 34.225865 -118.381696 351 8994ft 159kts
10-Oct-18 14:00 34.271355 -118.389654 353 8988ft 170kts
10-Oct-18 14:01 34.320250 -118.398388 352 9016ft 183kts
10-Oct-18 14:02 34.371142 -118.407359 353 8997ft 184kts
10-Oct-18 14:03 34.421071 -118.413828 354 8984ft 186kts
10-Oct-18 14:04 34.470609 -118.412886 37 9135ft 180kts
10-Oct-18 14:05 34.496368 -118.367376 64 10043ft 157kts
10-Oct-18 14:06 34.516639 -118.322916 62 11053ft 147kts
10-Oct-18 14:07 34.536562 -118.279798 65 11969ft 147kts
10-Oct-18 14:08 34.554672 -118.234831 68 12827ft 150kts
10-Oct-18 14:09 34.575450 -118.189947 62 13685ft 154kts
10-Oct-18 14:10 34.595955 -118.144070 65 14521ft 157kts
10-Oct-18 14:11 34.617117 -118.096961 66 15342ft 161kts
10-Oct-18 14:12 34.638371 -118.038886 90 16227ft 163kts
10-Oct-18 14:13 34.638668 -117.994191 89 16937ft 163kts
10-Oct-18 14:14 34.643826 -117.938969 89 17721ft 166kts
10-Oct-18 14:15 34.650471 -117.881653 88 18241ft 182kts
10-Oct-18 14:16 34.656530 -117.822281 87 19039ft 175kts
10-Oct-18 14:17 34.662496 -117.764192 88 19834ft 175kts
10-Oct-18 14:18 34.668444 -117.705646 88 20638ft 175kts
10-Oct-18 14:19 34.674482 -117.644364 87 20972ft 199kts
10-Oct-18 14:20 34.681330 -117.574649 87 20971ft 214kts
10-Oct-18 14:21 34.688470 -117.502754 87 20970ft 217kts
10-Oct-18 14:22 34.695750 -117.429066 87 20863ft 222kts
10-Oct-18 14:23 34.704113 -117.344369 88 20859ft 216kts
10-Oct-18 14:24 34.709623 -117.284231 88 20857ft 214kts
10-Oct-18 14:25 34.716464 -117.212276 88 20858ft 214kts
10-Oct-18 14:26 34.723411 -117.139991 88 20858ft 216kts
10-Oct-18 14:27 34.730377 -117.067300 87 20853ft 218kts
10-Oct-18 14:28 34.737394 -116.993641 86 20846ft 221kts
10-Oct-18 14:29 34.744501 -116.918489 86 20837ft 226kts
10-Oct-18 14:30 34.751779 -116.842152 81 20831ft 229kts
10-Oct-18 14:31 34.763956 -116.765772 82 20833ft 230kts
10-Oct-18 14:32 34.773129 -116.689551 84 20833ft 230kts
10-Oct-18 14:33 34.781413 -116.613135 84 20834ft 230kts
10-Oct-18 14:34 34.789553 -116.535830 84 20834ft 230kts
10-Oct-18 14:35 34.797568 -116.458697 84 20835ft 230kts
10-Oct-18 14:36 34.805662 -116.381420 84 20838ft 230kts
10-Oct-18 14:37 34.797645 -116.306436 107 20853ft 224kts
10-Oct-18 14:38 34.789222 -116.232111 93 20883ft 227kts
10-Oct-18 14:39 34.788095 -116.155543 94 20918ft 226kts
10-Oct-18 14:40 34.786147 -116.078673 95 20921ft 227kts
10-Oct-18 14:41 34.783969 -116.001878 95 20922ft 228kts
10-Oct-18 14:42 34.781689 -115.924792 95 20922ft 228kts
10-Oct-18 14:43 34.779356 -115.847907 95 20923ft 228kts
10-Oct-18 14:44 34.776968 -115.770857 95 20923ft 228kts
10-Oct-18 14:45 34.774527 -115.693619 95 20923ft 228kts
10-Oct-18 14:46 34.772038 -115.616436 95 20918ft 228kts
10-Oct-18 14:47 34.769068 -115.526241 95 20910ft 229kts
10-Oct-18 14:48 34.766910 -115.462098 95 20883ft 230kts
10-Oct-18 14:49 34.764243 -115.384334 95 20865ft 230kts
10-Oct-18 14:50 34.761334 -115.307172 96 20841ft 229kts
10-Oct-18 14:51 34.770101 -115.230951 75 20821ft 231kts
10-Oct-18 14:52 34.778639 -115.153989 90 20812ft 229kts
10-Oct-18 14:53 34.779480 -115.076629 95 20813ft 228kts
10-Oct-18 14:54 34.778380 -114.999651 96 20814ft 227kts
10-Oct-18 14:55 34.776803 -114.922806 97 20815ft 226kts
10-Oct-18 14:56 34.775080 -114.846184 97 20815ft 226kts
10-Oct-18 14:57 34.773325 -114.769853 97 20816ft 226kts
10-Oct-18 14:58 34.771521 -114.693373 97 20816ft 226kts
10-Oct-18 14:59 34.769680 -114.617296 97 20816ft 226kts
10-Oct-18 15:00 34.767808 -114.541972 97 20817ft 227kts
10-Oct-18 15:01 34.765832 -114.465285 97 20817ft 227kts
10-Oct-18 15:02 34.762916 -114.388613 99 20818ft 226kts
10-Oct-18 15:03 34.759828 -114.320618 100 20812ft 226kts
10-Oct-18 15:04 34.756325 -114.243766 99 20813ft 229kts
10-Oct-18 15:05 34.752982 -114.165977 99 20821ft 231kts
10-Oct-18 15:06 34.749739 -114.090140 99 20827ft 224kts
10-Oct-18 15:07 34.746461 -114.015108 99 20834ft 221kts
10-Oct-18 15:08 34.743174 -113.940890 99 20858ft 220kts
10-Oct-18 15:09 34.739846 -113.866445 99 20892ft 220kts
10-Oct-18 15:10 34.736486 -113.792238 99 20920ft 220kts
10-Oct-18 15:11 34.733085 -113.718081 99 20942ft 220kts
10-Oct-18 15:12 34.729607 -113.643482 99 20942ft 221kts
10-Oct-18 15:13 34.726067 -113.568703 99 20915ft 222kts
10-Oct-18 15:14 34.724737 -113.493729 96 20916ft 223kts
10-Oct-18 15:15 34.723895 -113.423295 98 21729ft 192kts
10-Oct-18 15:16 34.722937 -113.361460 99 22726ft 175kts
10-Oct-18 15:17 34.721208 -113.297491 99 22919ft 211kts
10-Oct-18 15:18 34.719532 -113.222666 98 22934ft 228kts
10-Oct-18 15:19 34.717977 -113.144801 97 22969ft 232kts
10-Oct-18 15:20 34.716367 -113.066161 98 23004ft 233kts
10-Oct-18 15:21 34.714981 -113.000553 97 23021ft 234kts
10-Oct-18 15:22 34.712971 -112.908191 98 23022ft 234kts
10-Oct-18 15:23 34.711504 -112.842692 98 23022ft 233kts
10-Oct-18 15:24 34.709693 -112.764037 98 23022ft 232kts
10-Oct-18 15:25 34.707833 -112.685671 98 23023ft 232kts
10-Oct-18 15:26 34.705606 -112.594515 98 23023ft 232kts
10-Oct-18 15:27 34.703964 -112.529122 98 23024ft 232kts
10-Oct-18 15:28 34.703548 -112.450520 89 23025ft 236kts
10-Oct-18 15:29 34.710509 -112.371214 89 23025ft 236kts
10-Oct-18 15:30 34.716339 -112.292543 91 23019ft 235kts
10-Oct-18 15:31 34.720911 -112.213705 109 23000ft 226kts
10-Oct-18 15:32 34.695163 -112.147839 130 23020ft 214kts
10-Oct-18 15:33 34.665072 -112.085817 130 23020ft 214kts
10-Oct-18 15:34 34.652916 -112.015193 83 23022ft 236kts
10-Oct-18 15:35 34.677999 -111.941085 76 23020ft 238kts
10-Oct-18 15:36 34.692673 -111.862936 85 23022ft 236kts
10-Oct-18 15:37 34.702747 -111.784207 87 23022ft 236kts
10-Oct-18 15:38 34.711755 -111.705523 87 23023ft 236kts
10-Oct-18 15:39 34.720544 -111.626371 87 23023ft 236kts
10-Oct-18 15:40 34.729225 -111.547376 87 23025ft 236kts
10-Oct-18 15:41 34.737864 -111.468247 87 23029ft 236kts
10-Oct-18 15:42 34.746465 -111.388957 87 23035ft 236kts
10-Oct-18 15:43 34.754729 -111.310733 88 23029ft 236kts
10-Oct-18 15:44 34.762982 -111.231633 88 23018ft 235kts
10-Oct-18 15:45 34.771361 -111.152485 88 23003ft 236kts
10-Oct-18 15:46 34.779725 -111.073343 88 22994ft 236kts
10-Oct-18 15:47 34.789392 -110.981178 87 22994ft 236kts
10-Oct-18 15:48 34.797671 -110.901726 87 22995ft 237kts
10-Oct-18 15:49 34.804533 -110.835609 87 22995ft 237kts
10-Oct-18 15:50 34.812754 -110.755929 87 22996ft 237kts
10-Oct-18 15:51 34.820934 -110.676056 87 22996ft 237kts
10-Oct-18 15:52 34.829037 -110.596417 87 23001ft 237kts
10-Oct-18 15:53 34.837074 -110.516859 87 23008ft 237kts
10-Oct-18 15:54 34.845033 -110.437521 87 23012ft 238kts
10-Oct-18 15:55 34.853003 -110.357569 87 23021ft 238kts
10-Oct-18 15:56 34.860523 -110.278534 88 23036ft 237kts
10-Oct-18 15:57 34.868206 -110.199123 87 23059ft 236kts
10-Oct-18 15:58 34.875942 -110.119701 87 23075ft 236kts
10-Oct-18 15:59 34.883679 -110.039912 87 23075ft 237kts
10-Oct-18 16:00 34.892652 -109.946711 87 23075ft 238kts
10-Oct-18 16:01 34.899031 -109.879957 87 23070ft 239kts
10-Oct-18 16:02 34.906619 -109.800003 87 23053ft 240kts
10-Oct-18 16:03 34.914256 -109.718997 87 23035ft 241kts
10-Oct-18 16:04 34.921863 -109.637716 87 23025ft 241kts
10-Oct-18 16:05 34.929426 -109.556318 87 23025ft 242kts
10-Oct-18 16:06 34.936948 -109.474753 87 23026ft 243kts
10-Oct-18 16:07 34.944442 -109.392880 87 23030ft 243kts
10-Oct-18 16:08 34.951599 -109.311931 89 23031ft 243kts
10-Oct-18 16:09 34.958720 -109.230160 88 23042ft 243kts
10-Oct-18 16:10 34.945156 -109.159350 153 23049ft 207kts
10-Oct-18 16:11 34.898670 -109.118345 155 23044ft 206kts
10-Oct-18 16:12 34.850523 -109.082062 160 23046ft 203kts
10-Oct-18 16:13 34.801399 -109.047945 160 23054ft 204kts
10-Oct-18 16:14 34.752094 -109.013690 160 23061ft 205kts
10-Oct-18 16:15 34.703692 -108.976148 146 23067ft 214kts
10-Oct-18 16:16 34.660478 -108.925502 144 23059ft 217kts
10-Oct-18 16:17 34.617378 -108.874785 144 23053ft 217kts
10-Oct-18 16:18 34.573963 -108.823723 144 23053ft 217kts
10-Oct-18 16:19 34.530609 -108.772694 144 23056ft 217kts
10-Oct-18 16:20 34.487213 -108.721605 144 23052ft 217kts
10-Oct-18 16:21 34.443875 -108.670595 144 23045ft 218kts
10-Oct-18 16:22 34.400470 -108.619496 144 23044ft 218kts
10-Oct-18 16:23 34.357161 -108.568468 144 23055ft 217kts
10-Oct-18 16:24 34.313949 -108.517532 144 23066ft 217kts
10-Oct-18 16:25 34.270749 -108.466559 144 23077ft 217kts
10-Oct-18 16:26 34.227468 -108.415470 144 23082ft 218kts
10-Oct-18 16:27 34.184141 -108.364352 144 23080ft 218kts
10-Oct-18 16:28 34.142121 -108.314702 144 23077ft 217kts
10-Oct-18 16:29 34.099347 -108.264030 144 23088ft 216kts
10-Oct-18 16:30 34.049401 -108.204794 144 23077ft 217kts
10-Oct-18 16:31 34.013551 -108.162347 144 23047ft 217kts
10-Oct-18 16:32 33.970525 -108.111443 144 23011ft 217kts
10-Oct-18 16:33 33.928731 -108.058687 117 22958ft 232kts
10-Oct-18 16:34 33.946379 -107.989145 33 22983ft 237kts
10-Oct-18 16:35 33.997450 -107.939239 35 23013ft 237kts
10-Oct-18 16:36 34.047442 -107.887480 36 23031ft 237kts
10-Oct-18 16:37 34.097171 -107.835122 36 23030ft 238kts
10-Oct-18 16:38 34.147002 -107.782413 36 23006ft 239kts
10-Oct-18 16:39 34.197070 -107.729330 36 22993ft 239kts
10-Oct-18 16:40 34.247100 -107.676215 36 22854ft 245kts
10-Oct-18 16:41 34.299634 -107.620341 37 22201ft 258kts
10-Oct-18 16:42 34.353483 -107.562900 37 21421ft 259kts
10-Oct-18 16:43 34.407187 -107.505495 37 20572ft 254kts
10-Oct-18 16:44 34.459344 -107.449655 37 19588ft 247kts
10-Oct-18 16:45 34.510191 -107.395150 38 18608ft 242kts
10-Oct-18 16:46 34.559446 -107.342180 39 17634ft 237kts
10-Oct-18 16:47 34.608014 -107.289035 39 16624ft 233kts
10-Oct-18 16:48 34.655831 -107.237353 39 15620ft 229kts
10-Oct-18 16:49 34.702382 -107.187107 39 14962ft 212kts
10-Oct-18 16:50 34.739236 -107.135796 66 14770ft 207kts
10-Oct-18 16:51 34.762693 -107.068830 67 13802ft 220kts
10-Oct-18 16:52 34.786620 -107.000331 67 12805ft 219kts
10-Oct-18 16:53 34.810268 -106.933424 67 11811ft 211kts
10-Oct-18 16:54 34.832721 -106.869825 67 10967ft 196kts
10-Oct-18 16:55 34.855026 -106.809539 66 9982ft 194kts
10-Oct-18 16:56 34.881165 -106.753952 50 8937ft 185kts
10-Oct-18 16:57 34.912767 -106.708735 43 8427ft 173kts
10-Oct-18 16:58 34.944470 -106.666305 43 7517ft 158kts
10-Oct-18 16:59 34.978922 -106.640277 12 6477ft 137kts
10-Oct-18 17:00 35.010695 -106.623115 43 6213ft 119kts
10-Oct-18 17:01 35.030960 -106.591373 41 6212ft 119kts
10-Oct-18 17:02 35.049212 -106.589173 260 5702ft 83kts
10-Oct-18 17:03 35.039790 -106.609427 229 5315ft 43kts
10-Oct-18 17:04 35.035923 -106.614226 257 5312ft 12kts
10-Oct-18 17:05 35.036383 -106.615008 301 5312ft 4kts
10-Oct-18 17:06 35.036174 -106.617621 250 5310ft 10kts
10-Oct-18 17:07 35.035730 -106.619254 139 5307ft 0kts
10-Oct-18 17:08 35.035730 -106.619254 139 5307ft 0kts

Navigation Log

Ident Type
Flight plan parsing failed, navigation log unavailable